Time;durP1;ratioP1;P1;durP2;ratioP2;P2;SDS_P1;SDS_P2;PMS_P1;PMS_P2;Temp;Humidity;BMP_temperature;BMP_pressure;BME280_temperature;BME280_humidity;BME280_pressure;Samples;Min_cycle;Max_cycle;Signal;HPM_P1;HPM_P2
2022/09/26 00:01:45;;;;;;;24.13;19.17;;;20.80;93.90;;;;;;10153835;29;20693;-86
2022/09/26 00:06:50;;;;;;;21.98;19.65;;;20.80;93.90;;;;;;10171855;29;20698;-86
2022/09/26 00:11:52;;;;;;;23.70;18.85;;;20.70;94.00;;;;;;10171452;29;20257;-86
2022/09/26 00:16:55;;;;;;;22.23;18.85;;;20.70;94.00;;;;;;10152934;29;20267;-86
2022/09/26 00:21:58;;;;;;;21.40;18.42;;;20.70;94.10;;;;;;10171257;29;20263;-86
2022/09/26 00:27:00;;;;;;;22.33;19.33;;;20.70;94.10;;;;;;10154000;29;20232;-86
2022/09/26 00:32:03;;;;;;;21.40;19.17;;;20.70;94.20;;;;;;10169091;29;20235;-86
2022/09/26 00:37:05;;;;;;;23.40;18.48;;;20.70;94.20;;;;;;10151578;29;20318;-86
2022/09/26 00:42:15;;;;;;;21.38;18.10;;;20.70;94.20;;;;;;10153801;29;20223;-87
2022/09/26 00:47:32;;;;;;;24.05;20.05;;;20.60;94.30;;;;;;10151688;29;20219;-86
2022/09/26 00:52:59;;;;;;;23.40;19.08;;;20.60;94.30;;;;;;10152589;29;20686;-87
2022/09/26 00:58:07;;;;;;;20.88;18.67;;;20.60;94.30;;;;;;10152635;29;20674;-86
2022/09/26 01:03:11;;;;;;;26.65;19.73;;;20.60;94.60;;;;;;10168410;29;20716;-87
2022/09/26 01:08:16;;;;;;;22.38;18.73;;;20.60;94.60;;;;;;10129117;29;20312;-86
2022/09/26 01:13:20;;;;;;;20.10;17.80;;;20.60;94.40;;;;;;10140684;29;20235;-86
2022/09/26 01:18:23;;;;;;;23.67;18.50;;;20.60;94.50;;;;;;10128489;29;20393;-87
2022/09/26 01:24:08;;;;;;;20.15;17.77;;;20.50;94.40;;;;;;10129478;29;20211;-86
2022/09/26 01:29:51;;;;;;;20.92;18.73;;;20.50;94.40;;;;;;10135293;29;20283;-86
2022/09/26 01:35:17;;;;;;;21.08;18.77;;;20.50;94.40;;;;;;10169277;29;20247;-86
2022/09/26 01:40:26;;;;;;;20.45;17.73;;;20.50;94.30;;;;;;10149742;29;20205;-86
2022/09/26 01:45:45;;;;;;;22.63;18.27;;;20.50;94.20;;;;;;10112628;29;20216;-86
2022/09/26 01:51:01;;;;;;;22.88;17.83;;;20.50;94.20;;;;;;10112577;29;20295;-86
2022/09/26 01:56:26;;;;;;;22.38;19.05;;;20.50;94.30;;;;;;10124841;29;20250;-86
2022/09/26 02:01:34;;;;;;;19.27;16.95;;;20.50;94.20;;;;;;10143910;29;20282;-86
2022/09/26 02:06:43;;;;;;;21.30;18.65;;;20.50;94.20;;;;;;10159217;29;20274;-86
2022/09/26 02:11:48;;;;;;;19.45;17.50;;;20.40;94.20;;;;;;10139791;29;20240;-86
2022/09/26 02:16:56;;;;;;;19.88;17.45;;;20.40;94.10;;;;;;10149450;29;20319;-86
2022/09/26 02:22:00;;;;;;;18.70;16.70;;;20.40;94.10;;;;;;10158228;29;20246;-86
2022/09/26 02:27:03;;;;;;;19.90;17.80;;;20.40;94.00;;;;;;10158347;29;20236;-86
2022/09/26 02:32:16;;;;;;;21.67;17.98;;;20.40;93.90;;;;;;10156473;29;20242;-86
2022/09/26 02:37:20;;;;;;;20.67;18.45;;;20.40;93.80;;;;;;10142054;29;20782;-86
2022/09/26 02:42:35;;;;;;;19.90;17.23;;;20.40;93.70;;;;;;10157742;29;20291;-86
2022/09/26 02:47:53;;;;;;;19.05;17.00;;;20.40;93.50;;;;;;10155935;29;20271;-86
2022/09/26 02:53:19;;;;;;;23.05;18.33;;;20.40;93.40;;;;;;10156361;29;20397;-86
2022/09/26 02:58:38;;;;;;;20.08;17.27;;;20.50;93.30;;;;;;10149234;29;20267;-86
2022/09/26 03:04:01;;;;;;;19.48;17.38;;;20.40;93.30;;;;;;10141253;29;20302;-86
2022/09/26 03:09:05;;;;;;;20.13;17.27;;;20.40;93.20;;;;;;10169784;29;20242;-86
2022/09/26 03:14:09;;;;;;;18.75;16.75;;;20.40;93.20;;;;;;10155981;29;20271;-86
2022/09/26 03:19:38;;;;;;;20.92;17.48;;;20.40;93.00;;;;;;10155666;29;20361;-86
2022/09/26 03:24:42;;;;;;;23.45;16.98;;;20.40;93.00;;;;;;10132885;29;20271;-86
2022/09/26 03:29:46;;;;;;;21.23;17.58;;;20.40;92.90;;;;;;10139844;29;20212;-86
2022/09/26 03:34:56;;;;;;;21.33;17.75;;;20.40;92.90;;;;;;10155359;29;20250;-86
2022/09/26 03:39:58;;;;;;;18.75;16.73;;;20.40;92.90;;;;;;10155385;29;20235;-86
2022/09/26 03:45:21;;;;;;;19.67;17.58;;;20.30;92.80;;;;;;10140469;29;20244;-87
2022/09/26 03:50:33;;;;;;;22.85;18.27;;;20.40;92.80;;;;;;10138460;29;20211;-86
2022/09/26 03:55:35;;;;;;;21.33;18.08;;;20.40;92.80;;;;;;10152301;29;20277;-86
2022/09/26 04:00:38;;;;;;;21.45;18.38;;;20.30;92.80;;;;;;10138322;29;20215;-86
2022/09/26 04:05:42;;;;;;;20.40;16.92;;;20.30;92.80;;;;;;10153964;29;20251;-86
2022/09/26 04:10:45;;;;;;;18.98;16.98;;;20.30;92.90;;;;;;10142837;29;20240;-86
2022/09/26 04:15:54;;;;;;;20.40;18.17;;;20.20;92.90;;;;;;10152405;29;20263;-86
2022/09/26 04:20:59;;;;;;;21.10;18.13;;;20.20;92.90;;;;;;10153644;29;20267;-86
2022/09/26 04:26:04;;;;;;;19.83;17.33;;;20.20;93.00;;;;;;10144086;29;20691;-85
2022/09/26 04:31:09;;;;;;;19.30;16.85;;;20.20;92.90;;;;;;10162316;29;20239;-86
2022/09/26 04:36:16;;;;;;;18.83;16.50;;;20.30;92.70;;;;;;10134143;29;20255;-85
2022/09/26 04:41:21;;;;;;;20.17;16.63;;;20.30;92.80;;;;;;10163916;29;20911;-85
2022/09/26 04:46:27;;;;;;;19.85;17.17;;;20.30;92.80;;;;;;10130929;29;20236;-86
2022/09/26 04:51:33;;;;;;;19.30;17.08;;;20.30;92.70;;;;;;10121818;29;20299;-86
2022/09/26 04:56:38;;;;;;;19.25;17.15;;;20.30;92.80;;;;;;10143036;29;20247;-86
2022/09/26 05:01:42;;;;;;;20.25;17.90;;;20.30;92.60;;;;;;10132385;29;20681;-86
2022/09/26 05:06:50;;;;;;;18.60;16.63;;;20.40;92.60;;;;;;10151485;29;20240;-86
2022/09/26 05:12:01;;;;;;;18.30;16.25;;;20.40;92.50;;;;;;10147411;29;20243;-85
2022/09/26 05:17:05;;;;;;;19.35;16.70;;;20.40;92.50;;;;;;10146914;29;20267;-86
2022/09/26 05:22:09;;;;;;;19.23;17.15;;;20.40;92.60;;;;;;10145743;29;20231;-85
2022/09/26 05:27:13;;;;;;;23.42;18.30;;;20.40;92.60;;;;;;10148929;29;20685;-86
2022/09/26 05:32:16;;;;;;;26.45;18.88;;;20.30;91.90;;;;;;10180047;29;20270;-85
2022/09/26 05:37:20;;;;;;;20.67;15.98;;;19.60;94.00;;;;;;10161119;29;20334;-85
2022/09/26 05:42:23;;;;;;;18.75;15.57;;;19.90;93.20;;;;;;10174979;29;20274;-85
2022/09/26 05:47:31;;;;;;;22.65;14.73;;;20.00;92.50;;;;;;10158364;29;20757;-85
2022/09/26 05:52:37;;;;;;;23.52;18.58;;;20.20;92.20;;;;;;10171292;29;20768;-85
2022/09/26 05:57:53;;;;;;;27.50;18.08;;;19.90;93.00;;;;;;10158497;29;20254;-87
2022/09/26 06:03:02;;;;;;;30.48;20.08;;;19.50;94.90;;;;;;10197587;29;20234;-88
2022/09/26 06:08:37;;;;;;;31.00;18.87;;;19.80;94.80;;;;;;10198038;29;20258;-87
2022/09/26 06:14:00;;;;;;;41.90;24.95;;;20.00;94.10;;;;;;10196172;29;20256;-84
2022/09/26 06:19:03;;;;;;;33.47;20.77;;;19.00;98.40;;;;;;10140089;29;20675;-84
2022/09/26 06:24:05;;;;;;;26.03;20.27;;;19.30;99.20;;;;;;10118775;29;20208;-85
2022/09/26 06:29:10;;;;;;;30.42;19.58;;;19.70;97.80;;;;;;10118435;29;20271;-85
2022/09/26 06:34:15;;;;;;;27.60;20.20;;;20.20;97.20;;;;;;10103738;29;20220;-85
2022/09/26 06:39:39;;;;;;;25.65;19.33;;;20.00;96.60;;;;;;10103963;29;20268;-86
2022/09/26 06:44:41;;;;;;;27.83;20.48;;;20.40;96.70;;;;;;10094538;29;20264;-85
2022/09/26 06:50:04;;;;;;;29.27;22.83;;;19.40;99.10;;;;;;10094664;29;20217;-85
2022/09/26 06:55:11;;;;;;;32.83;22.02;;;20.30;97.60;;;;;;10103983;29;20701;-85
2022/09/26 07:00:15;;;;;;;26.17;21.05;;;20.40;97.00;;;;;;10117524;29;20272;-85
2022/09/26 07:05:39;;;;;;;33.00;22.70;;;21.00;95.60;;;;;;10134300;29;20239;-85
2022/09/26 07:10:42;;;;;;;32.05;24.63;;;20.90;95.60;;;;;;10116951;29;20259;-85
2022/09/26 07:15:56;;;;;;;36.15;23.98;;;21.00;95.30;;;;;;10117180;29;20332;-85
2022/09/26 07:21:28;;;;;;;33.58;25.40;;;21.20;95.00;;;;;;10150552;29;20705;-85
2022/09/26 07:26:45;;;;;;;28.27;21.50;;;21.30;94.50;;;;;;10133146;29;20239;-85
2022/09/26 07:31:47;;;;;;;33.72;26.45;;;21.10;95.60;;;;;;10150494;29;20247;-84
2022/09/26 07:37:15;;;;;;;32.78;23.13;;;21.50;94.50;;;;;;10142377;29;21114;-85
2022/09/26 07:42:20;;;;;;;30.88;25.33;;;21.50;94.10;;;;;;10136211;29;20283;-85
2022/09/26 07:53:03;;;;;;;33.25;24.92;;;21.90;93.00;;;;;;10171481;29;20251;-85
2022/09/26 07:58:05;;;;;;;33.95;25.13;;;21.80;93.10;;;;;;10166730;29;20271;-85
2022/09/26 08:03:28;;;;;;;34.03;25.60;;;21.90;92.90;;;;;;10153729;29;20239;-85
2022/09/26 08:08:34;;;;;;;28.90;23.83;;;22.20;92.20;;;;;;10138431;29;20239;-84
2022/09/26 08:13:37;;;;;;;30.02;23.35;;;21.90;92.80;;;;;;10158769;29;20295;-85
2022/09/26 08:19:00;;;;;;;31.98;24.77;;;22.20;92.20;;;;;;10135670;29;20267;-85
2022/09/26 08:24:03;;;;;;;24.77;19.35;;;22.20;91.90;;;;;;10132838;29;20248;-85
2022/09/26 08:29:11;;;;;;;28.25;22.90;;;22.00;92.30;;;;;;10151188;29;20314;-85
2022/09/26 08:34:15;;;;;;;31.15;23.48;;;21.60;93.90;;;;;;10131161;29;20240;-84
2022/09/26 08:39:43;;;;;;;29.15;22.30;;;21.70;93.70;;;;;;10149159;29;20259;-84
2022/09/26 08:51:17;;;;;;;28.80;23.30;;;21.70;93.80;;;;;;9956225;29;20246;-84
2022/09/26 08:56:29;;;;;;;26.52;22.65;;;22.10;92.50;;;;;;9972289;29;20360;-85
2022/09/26 09:01:38;;;;;;;19.40;16.88;;;22.00;92.50;;;;;;9971339;29;20238;-85
2022/09/26 09:07:00;;;;;;;27.75;23.00;;;21.80;93.10;;;;;;9972120;29;20242;-85
2022/09/26 09:12:51;;;;;;;26.83;22.10;;;22.10;92.60;;;;;;9967822;29;20250;-85
2022/09/26 09:18:34;;;;;;;15.48;12.13;;;22.10;92.50;;;;;;10011864;29;20302;-88
2022/09/26 09:24:23;;;;;;;19.17;13.02;;;21.10;97.20;;;;;;10010718;29;20864;-88
2022/09/26 09:29:40;;;;;;;15.20;12.75;;;19.80;99.90;;;;;;10009776;29;20302;-88
2022/09/26 09:35:19;;;;;;;20.60;13.93;;;20.10;99.90;;;;;;10008861;29;20718;-87
2022/09/26 09:40:50;;;;;;;15.73;12.63;;;20.30;99.90;;;;;;10009571;29;20746;-88
2022/09/26 09:46:00;;;;;;;26.27;9.80;;;20.20;99.90;;;;;;10007513;29;20246;-85
2022/09/26 09:51:21;;;;;;;19.95;8.70;;;20.60;99.90;;;;;;10046351;29;20704;-86
2022/09/26 09:56:27;;;;;;;16.88;10.55;;;21.10;98.50;;;;;;10005419;29;20315;-85
2022/09/26 10:01:40;;;;;;;16.98;11.38;;;21.30;98.20;;;;;;10148145;29;20312;-85
2022/09/26 10:06:45;;;;;;;22.75;11.95;;;21.00;96.90;;;;;;10135814;29;20282;-86
2022/09/26 10:11:54;;;;;;;17.48;10.73;;;21.20;98.20;;;;;;10158126;29;20287;-85
2022/09/26 10:17:19;;;;;;;23.27;16.77;;;21.30;97.30;;;;;;10148788;29;20271;-85
2022/09/26 10:22:43;;;;;;;21.80;13.88;;;22.10;96.30;;;;;;10104949;29;20240;-85
2022/09/26 10:27:58;;;;;;;23.65;16.15;;;22.20;94.50;;;;;;10099693;29;20564;-85
2022/09/26 10:33:03;;;;;;;18.25;13.45;;;22.30;94.90;;;;;;10114483;29;20774;-85
2022/09/26 10:38:28;;;;;;;20.60;16.50;;;22.90;93.00;;;;;;10118369;29;20253;-85
2022/09/26 10:43:54;;;;;;;23.05;18.65;;;22.30;94.20;;;;;;10112297;29;20244;-85
2022/09/26 10:49:24;;;;;;;25.13;17.67;;;22.50;94.50;;;;;;10103988;29;20245;-85
2022/09/26 10:55:08;;;;;;;19.42;15.95;;;22.40;93.00;;;;;;10134850;29;20703;-86
2022/09/26 11:00:44;;;;;;;21.52;17.80;;;22.70;93.60;;;;;;10100160;29;20723;-85
2022/09/26 11:05:55;;;;;;;24.08;17.67;;;22.80;92.20;;;;;;10123961;29;20207;-85
2022/09/26 11:11:10;;;;;;;22.73;18.52;;;22.70;93.00;;;;;;10107051;29;20240;-85
2022/09/26 11:16:19;;;;;;;6.60;5.97;;;22.90;92.10;;;;;;10121725;29;20306;-85
2022/09/26 11:21:51;;;;;;;24.80;16.50;;;20.80;93.20;;;;;;10137127;29;20635;-85
2022/09/26 11:27:32;;;;;;;24.65;17.75;;;22.40;94.50;;;;;;10135523;29;20260;-85
2022/09/26 11:32:41;;;;;;;19.20;15.10;;;22.00;80.50;;;;;;10140309;29;20299;-85
2022/09/26 11:38:39;;;;;;;23.58;18.15;;;22.60;83.00;;;;;;10145246;29;20287;-85
2022/09/26 11:44:16;;;;;;;20.75;15.50;;;22.60;93.10;;;;;;10128706;29;20294;-85
2022/09/26 11:49:43;;;;;;;21.98;17.00;;;22.90;92.00;;;;;;10161956;29;20255;-85
2022/09/26 11:55:10;;;;;;;21.58;16.27;;;23.00;91.40;;;;;;10144145;29;20711;-86
2022/09/26 12:00:25;;;;;;;20.92;16.85;;;22.60;92.10;;;;;;10153233;29;20263;-85
2022/09/26 12:05:50;;;;;;;32.40;16.67;;;22.90;91.40;;;;;;10137951;29;20235;-86
2022/09/26 12:11:14;;;;;;;18.85;14.60;;;22.90;91.20;;;;;;10166040;29;20307;-85
2022/09/26 12:16:51;;;;;;;10.75;8.88;;;22.80;91.20;;;;;;10168197;29;20267;-85
2022/09/26 12:22:28;;;;;;;20.10;14.55;;;22.50;91.30;;;;;;10152499;29;20216;-85
2022/09/26 12:27:42;;;;;;;13.25;11.27;;;22.50;91.90;;;;;;10170816;29;20243;-85
2022/09/26 12:32:57;;;;;;;18.50;14.38;;;22.30;92.00;;;;;;10163257;29;20247;-85
2022/09/26 12:38:14;;;;;;;15.32;13.23;;;22.20;90.20;;;;;;10171606;29;20262;-85
2022/09/26 12:43:47;;;;;;;18.90;14.95;;;22.10;90.50;;;;;;10169053;29;20231;-85
2022/09/26 12:49:18;;;;;;;6.93;5.68;;;22.00;93.60;;;;;;10152093;29;20295;-85
2022/09/26 12:54:43;;;;;;;16.50;13.38;;;21.10;90.60;;;;;;10151425;29;20220;-85
2022/09/26 13:00:10;;;;;;;18.35;13.55;;;21.50;94.50;;;;;;10168472;29;20254;-85
2022/09/26 13:05:45;;;;;;;9.45;5.32;;;21.70;92.50;;;;;;10165446;29;20303;-88
2022/09/26 13:10:50;;;;;;;11.13;8.23;;;21.30;91.90;;;;;;10169014;29;20235;-88
2022/09/26 13:16:26;;;;;;;8.55;6.45;;;20.90;92.50;;;;;;10169065;29;20286;-88
2022/09/26 13:21:55;;;;;;;10.02;5.72;;;21.00;91.90;;;;;;10151342;29;20232;-85
2022/09/26 13:27:15;;;;;;;5.97;4.67;;;19.20;93.20;;;;;;10145790;29;20765;-84
2022/09/26 13:32:27;;;;;;;5.27;4.67;;;15.60;99.90;;;;;;10148701;29;20211;-84
2022/09/26 13:37:43;;;;;;;11.40;5.90;;;15.40;99.90;;;;;;10158456;29;20702;-84
2022/09/26 13:42:56;;;;;;;6.13;5.40;;;16.20;99.90;;;;;;10152636;29;20255;-84
2022/09/26 13:48:15;;;;;;;11.70;7.70;;;14.80;99.90;;;;;;10144065;29;20697;-84
2022/09/26 13:53:41;;;;;;;15.20;9.03;;;14.40;99.90;;;;;;10169671;29;20373;-85
2022/09/26 13:58:44;;;;;;;13.67;9.33;;;14.90;99.90;;;;;;10143887;29;20267;-84
2022/09/26 14:03:46;;;;;;;15.87;8.53;;;15.30;99.90;;;;;;10160875;29;20263;-85
2022/09/26 14:09:24;;;;;;;12.30;9.20;;;15.50;99.90;;;;;;10139907;29;20251;-84
2022/09/26 14:14:41;;;;;;;11.97;8.87;;;14.60;99.90;;;;;;10155677;29;20303;-85
2022/09/26 14:19:51;;;;;;;14.93;10.10;;;15.70;99.90;;;;;;10173500;29;20713;-84
2022/09/26 14:24:55;;;;;;;22.13;9.47;;;18.40;99.90;;;;;;10178591;29;20634;-84
2022/09/26 14:30:00;;;;;;;17.85;10.05;;;20.70;99.90;;;;;;10154394;29;20652;-83
2022/09/26 14:35:33;;;;;;;11.40;9.98;;;21.50;98.90;;;;;;10174286;29;20240;-84
2022/09/26 14:40:36;;;;;;;13.30;11.23;;;22.00;96.90;;;;;;10174562;29;20283;-84
2022/09/26 14:45:47;;;;;;;16.15;11.27;;;22.20;95.80;;;;;;10155765;29;20207;-84
2022/09/26 14:50:56;;;;;;;14.45;11.50;;;22.40;94.90;;;;;;10156402;29;20314;-84
2022/09/26 14:56:01;;;;;;;14.80;11.55;;;22.70;93.80;;;;;;10181631;29;20267;-84
2022/09/26 15:01:12;;;;;;;13.05;11.45;;;22.50;93.90;;;;;;10183170;29;20319;-84
2022/09/26 15:06:15;;;;;;;14.35;11.85;;;22.60;93.50;;;;;;10173293;29;20267;-84
2022/09/26 15:11:35;;;;;;;13.38;10.73;;;22.90;92.50;;;;;;10157094;29;20275;-84
2022/09/26 15:16:46;;;;;;;17.23;11.85;;;23.00;91.90;;;;;;10155451;29;20761;-84
2022/09/26 15:22:03;;;;;;;14.50;12.18;;;22.90;92.00;;;;;;10139256;29;20746;-84
2022/09/26 15:27:15;;;;;;;13.32;11.38;;;23.00;91.80;;;;;;10166711;29;20247;-84
2022/09/26 15:32:25;;;;;;;13.18;11.43;;;22.80;92.00;;;;;;10172107;29;20203;-84
2022/09/26 15:37:33;;;;;;;14.05;12.10;;;22.60;92.60;;;;;;10143000;29;20718;-85
2022/09/26 15:48:02;;;;;;;11.18;10.07;;;22.70;92.20;;;;;;10167628;29;20306;-84
2022/09/26 15:53:17;;;;;;;12.98;11.00;;;22.70;92.20;;;;;;10150177;29;20246;-84
2022/09/26 15:58:43;;;;;;;13.52;11.15;;;22.60;92.30;;;;;;10149938;29;20306;-83
2022/09/26 16:04:02;;;;;;;12.27;10.85;;;22.60;92.50;;;;;;10150659;29;20290;-84
2022/09/26 16:09:09;;;;;;;13.20;11.57;;;22.60;92.50;;;;;;10148714;29;20318;-84
2022/09/26 16:14:26;;;;;;;13.02;10.27;;;22.60;92.40;;;;;;10149719;29;20239;-83
2022/09/26 16:19:33;;;;;;;12.63;10.63;;;22.60;92.40;;;;;;10126903;29;20342;-84
2022/09/26 16:24:36;;;;;;;12.50;11.15;;;22.50;92.50;;;;;;10146627;29;20231;-84
2022/09/26 16:29:39;;;;;;;12.77;10.65;;;22.50;92.70;;;;;;10146493;29;20242;-84
2022/09/26 16:34:41;;;;;;;11.40;10.05;;;22.40;92.80;;;;;;10147837;29;20267;-84
2022/09/26 16:39:59;;;;;;;11.32;9.88;;;22.30;93.00;;;;;;10164867;29;20304;-84
2022/09/26 16:45:04;;;;;;;12.23;9.85;;;22.30;93.10;;;;;;10147745;29;20231;-83
2022/09/26 16:50:25;;;;;;;10.73;9.65;;;22.20;93.20;;;;;;10162587;29;20243;-84
2022/09/26 16:55:32;;;;;;;11.75;10.27;;;22.10;93.50;;;;;;10147299;29;20231;-84
2022/09/26 17:05:57;;;;;;;10.45;6.45;;;21.20;92.70;;;;;;10167761;29;20251;-87
2022/09/26 17:11:02;;;;;;;6.68;5.05;;;20.90;93.10;;;;;;10168064;29;20704;-87
2022/09/26 17:16:06;;;;;;;9.38;5.20;;;20.80;93.00;;;;;;10119631;29;1383148;-87
2022/09/26 17:21:10;;;;;;;6.53;5.18;;;20.70;93.50;;;;;;10151927;29;20314;-87
2022/09/26 17:26:22;;;;;;;6.97;4.85;;;20.50;94.00;;;;;;9822851;29;9999981;-87
2022/09/26 17:31:25;;;;;;;9.15;5.60;;;20.60;93.90;;;;;;10188069;29;20293;-87
2022/09/26 17:36:28;;;;;;;8.57;5.53;;;20.70;93.70;;;;;;10188088;29;20297;-87
2022/09/26 17:41:33;;;;;;;10.30;7.22;;;20.70;93.60;;;;;;10185898;29;20808;-87
2022/09/26 17:46:37;;;;;;;11.05;6.97;;;20.70;93.60;;;;;;10204867;29;20301;-87
2022/09/26 17:51:41;;;;;;;11.18;7.75;;;20.70;93.60;;;;;;10186444;29;20672;-87
2022/09/26 17:56:43;;;;;;;11.63;8.15;;;20.70;93.60;;;;;;10188893;29;20282;-86
2022/09/26 18:01:49;;;;;;;11.70;7.95;;;20.60;93.70;;;;;;10189558;29;20262;-87
2022/09/26 18:06:55;;;;;;;13.68;7.45;;;20.70;93.70;;;;;;10204029;29;20246;-87
2022/09/26 18:12:01;;;;;;;10.15;8.27;;;20.70;93.60;;;;;;10186466;29;20298;-87
2022/09/26 18:17:04;;;;;;;22.08;9.23;;;20.70;93.50;;;;;;10154849;29;20743;-83
2022/09/26 18:22:16;;;;;;;13.77;8.17;;;13.50;99.90;;;;;;10148286;29;20725;-84
2022/09/26 18:27:19;;;;;;;11.53;7.50;;;18.00;99.90;;;;;;10149317;29;20719;-83
2022/09/26 18:32:41;;;;;;;26.67;14.73;;;14.60;99.90;;;;;;10167187;29;20755;-83
2022/09/26 18:37:44;;;;;;;99.37;49.77;;;14.10;99.90;;;;;;10167336;29;20235;-83
2022/09/26 18:42:47;;;;;;;72.20;36.93;;;9.50;99.90;;;;;;10157463;29;20631;-84
2022/09/26 18:47:50;;;;;;;21.73;14.00;;;9.00;99.90;;;;;;10156856;29;20239;-84
2022/09/26 18:52:52;;;;;;;25.80;14.93;;;17.50;99.90;;;;;;10173259;29;20227;-84
2022/09/26 19:03:17;;;;;;;27.05;16.45;;;20.90;99.90;;;;;;10173513;29;21024;-84
2022/09/26 19:08:34;;;;;;;25.33;16.73;;;21.50;98.30;;;;;;10172622;29;20236;-84
2022/09/26 19:13:36;;;;;;;27.48;16.42;;;21.70;96.90;;;;;;10150737;29;20247;-84
2022/09/26 19:18:39;;;;;;;27.63;16.67;;;17.90;99.90;;;;;;10143713;29;20315;-84
2022/09/26 19:23:43;;;;;;;27.35;16.52;;;19.50;99.90;;;;;;10168332;29;20275;-85
2022/09/26 19:28:45;;;;;;;25.15;16.35;;;21.20;98.80;;;;;;10149396;29;20300;-84
2022/09/26 19:33:49;;;;;;;27.05;14.80;;;21.80;96.40;;;;;;10166047;29;20227;-85
2022/09/26 19:38:51;;;;;;;29.38;16.88;;;22.00;95.20;;;;;;10155457;29;20655;-84
2022/09/26 19:43:53;;;;;;;27.30;16.27;;;22.00;94.50;;;;;;10153003;29;20240;-83
2022/09/26 19:48:56;;;;;;;21.35;15.00;;;22.10;93.80;;;;;;10150207;29;20254;-84
2022/09/26 19:53:59;;;;;;;24.67;15.05;;;22.20;93.30;;;;;;10153506;29;20247;-84
2022/09/26 19:59:09;;;;;;;21.27;14.80;;;22.20;92.90;;;;;;10150598;29;20685;-84
2022/09/26 20:04:15;;;;;;;21.63;13.20;;;22.20;92.70;;;;;;10147558;29;20296;-84
2022/09/26 20:09:19;;;;;;;23.95;14.98;;;22.10;92.50;;;;;;10136716;29;20731;-83
2022/09/26 20:14:22;;;;;;;24.25;14.20;;;22.10;92.20;;;;;;10134730;29;20703;-83
2022/09/26 20:19:40;;;;;;;20.15;13.90;;;22.10;92.10;;;;;;10154826;29;20259;-84
2022/09/26 20:24:46;;;;;;;20.67;13.90;;;22.10;92.00;;;;;;10151501;29;20262;-84
2022/09/26 20:35:14;;;;;;;19.08;13.75;;;22.00;91.90;;;;;;10168041;29;20236;-84
2022/09/26 20:40:21;;;;;;;18.38;12.52;;;22.00;92.10;;;;;;10127032;29;21016;-84
2022/09/26 20:45:39;;;;;;;20.98;13.50;;;22.00;91.90;;;;;;10167918;29;20290;-84
2022/09/26 20:50:42;;;;;;;19.63;12.73;;;21.90;91.70;;;;;;10168643;29;20788;-84
2022/09/26 20:55:48;;;;;;;24.73;14.40;;;21.90;91.70;;;;;;10169019;29;20239;-84
2022/09/26 21:00:52;;;;;;;18.23;13.30;;;21.90;92.00;;;;;;10164117;29;20256;-84
2022/09/26 21:05:54;;;;;;;20.10;13.82;;;21.90;91.80;;;;;;10148837;29;20239;-84
2022/09/26 21:10:59;;;;;;;17.60;12.65;;;21.80;91.80;;;;;;10144667;29;20291;-84
2022/09/26 21:16:02;;;;;;;17.83;13.15;;;21.80;91.80;;;;;;10150284;29;20271;-83
2022/09/26 21:21:10;;;;;;;19.40;13.13;;;21.80;91.80;;;;;;10160580;29;20722;-84
2022/09/26 21:26:50;;;;;;;16.42;12.00;;;21.70;91.80;;;;;;10140260;29;20227;-84
2022/09/26 21:31:57;;;;;;;21.20;14.32;;;21.70;91.80;;;;;;10141405;29;20286;-84
2022/09/26 21:37:02;;;;;;;21.20;14.37;;;21.70;91.70;;;;;;10151190;29;20244;-84
2022/09/26 21:42:06;;;;;;;17.10;12.13;;;13.50;99.90;;;;;;10138765;29;20259;-84
2022/09/26 21:47:09;;;;;;;17.60;12.80;;;19.50;99.90;;;;;;10146093;29;20623;-84
2022/09/26 21:52:17;;;;;;;17.17;11.93;;;20.80;98.70;;;;;;10130211;29;20656;-84
2022/09/26 21:57:27;;;;;;;19.40;12.75;;;21.20;96.60;;;;;;10147398;29;20239;-84
2022/09/26 22:02:30;;;;;;;15.40;12.27;;;21.40;95.40;;;;;;10141817;29;20255;-85
2022/09/26 22:07:33;;;;;;;17.92;12.63;;;21.40;94.70;;;;;;10134896;29;20239;-85
2022/09/26 22:12:36;;;;;;;16.70;11.52;;;21.40;94.30;;;;;;10166787;29;20243;-85
2022/09/26 22:17:38;;;;;;;15.63;11.52;;;21.50;93.80;;;;;;10175260;29;20267;-84
2022/09/26 22:22:41;;;;;;;16.02;12.35;;;21.50;93.50;;;;;;10174799;29;20306;-85
2022/09/26 22:27:44;;;;;;;13.55;10.73;;;21.50;93.30;;;;;;10157468;29;20847;-85
2022/09/26 22:32:46;;;;;;;16.30;12.48;;;21.50;93.10;;;;;;10173891;29;20647;-85
2022/09/26 22:37:49;;;;;;;16.00;12.10;;;21.40;93.00;;;;;;10173939;29;20642;-85
2022/09/26 22:42:51;;;;;;;16.58;11.95;;;21.40;92.90;;;;;;10169027;29;20263;-85
2022/09/26 22:47:55;;;;;;;15.50;11.23;;;21.40;92.90;;;;;;10174222;29;20636;-85
2022/09/26 22:52:58;;;;;;;13.98;10.88;;;21.40;93.10;;;;;;10172646;29;20251;-85
2022/09/26 22:58:00;;;;;;;13.25;10.90;;;21.30;93.20;;;;;;10155855;29;20627;-85
2022/09/26 23:03:03;;;;;;;14.20;11.05;;;21.30;93.10;;;;;;10173617;29;20259;-85
2022/09/26 23:08:05;;;;;;;15.82;11.73;;;21.30;93.10;;;;;;10173476;29;20235;-85
2022/09/26 23:13:08;;;;;;;13.88;12.07;;;21.30;93.00;;;;;;10136497;29;20239;-85
2022/09/26 23:18:12;;;;;;;16.10;12.15;;;21.30;93.10;;;;;;10151081;29;20271;-85
2022/09/26 23:23:14;;;;;;;12.52;10.85;;;21.30;92.90;;;;;;10172584;29;20286;-85
2022/09/26 23:28:17;;;;;;;13.95;10.73;;;21.30;92.80;;;;;;10155382;29;20271;-85
2022/09/26 23:33:19;;;;;;;14.80;10.70;;;21.30;92.80;;;;;;10155705;29;20276;-85
2022/09/26 23:38:21;;;;;;;13.65;11.05;;;21.30;92.70;;;;;;10172404;29;20267;-85
2022/09/26 23:43:24;;;;;;;15.15;11.27;;;21.30;92.80;;;;;;10155169;29;20259;-85
2022/09/26 23:48:27;;;;;;;13.15;11.07;;;21.30;92.90;;;;;;10171019;29;20263;-85
2022/09/26 23:53:29;;;;;;;14.05;11.07;;;21.30;93.20;;;;;;10172293;29;20628;-85
2022/09/26 23:58:32;;;;;;;14.32;10.90;;;21.30;93.20;;;;;;10171380;29;20676;-85
